createdAt,value
2018-08-20T00:01:28.968Z,21.90
2018-08-20T00:03:59.763Z,21.90
2018-08-20T00:06:28.944Z,21.80
2018-08-20T00:08:57.096Z,21.90
2018-08-20T00:11:25.233Z,21.90
2018-08-20T00:13:53.429Z,21.30
2018-08-20T00:16:21.616Z,21.80
2018-08-20T00:18:49.788Z,21.90
2018-08-20T00:21:17.966Z,21.90
2018-08-20T00:23:46.090Z,21.90
2018-08-20T00:26:14.269Z,21.90
2018-08-20T00:28:42.432Z,21.90
2018-08-20T00:31:10.594Z,21.90
2018-08-20T00:33:38.794Z,21.90
2018-08-20T00:36:06.940Z,21.90
2018-08-20T00:38:35.106Z,21.90
2018-08-20T00:41:03.219Z,21.90
2018-08-20T00:43:31.382Z,21.90
2018-08-20T00:45:59.530Z,21.80
2018-08-20T00:48:27.668Z,21.80
2018-08-20T00:50:55.806Z,21.70
2018-08-20T00:53:23.955Z,21.60
2018-08-20T00:55:52.136Z,21.60
2018-08-20T00:58:20.303Z,21.40
2018-08-20T01:00:48.452Z,21.40
2018-08-20T01:03:16.655Z,21.30
2018-08-20T01:05:44.818Z,21.40
2018-08-20T01:08:12.972Z,21.40
2018-08-20T01:10:41.207Z,21.30
2018-08-20T01:13:09.402Z,21.20
2018-08-20T01:15:37.571Z,21.20
2018-08-20T01:18:05.826Z,21.20
2018-08-20T01:20:34.115Z,21.10
2018-08-20T01:23:02.253Z,21.00
2018-08-20T01:25:30.399Z,21.10
2018-08-20T01:27:58.540Z,21.00
2018-08-20T01:30:26.694Z,20.90
2018-08-20T01:33:01.276Z,20.90
2018-08-20T01:35:29.433Z,20.90
2018-08-20T01:37:57.631Z,20.90
2018-08-20T01:40:25.896Z,20.80
2018-08-20T01:42:54.051Z,20.80
2018-08-20T01:45:22.260Z,20.80
2018-08-20T01:47:50.419Z,20.80
2018-08-20T01:50:18.572Z,20.70
2018-08-20T01:52:46.761Z,20.70
2018-08-20T01:55:14.916Z,20.70
2018-08-20T01:57:43.116Z,20.60
2018-08-20T02:00:11.343Z,20.60
2018-08-20T02:02:39.485Z,20.50
2018-08-20T02:05:07.979Z,20.50
2018-08-20T02:07:36.175Z,20.50
2018-08-20T02:10:05.476Z,20.40
2018-08-20T02:12:33.668Z,20.40
2018-08-20T02:15:02.870Z,20.40
2018-08-20T02:17:31.024Z,20.40
2018-08-20T02:19:59.185Z,20.30
2018-08-20T02:22:27.379Z,20.30
2018-08-20T02:24:55.540Z,20.30
2018-08-20T02:27:23.703Z,20.20
2018-08-20T02:29:51.892Z,20.20
2018-08-20T02:32:20.041Z,20.20
2018-08-20T02:34:48.252Z,20.20
2018-08-20T02:37:16.414Z,20.10
2018-08-20T02:39:44.564Z,20.10
2018-08-20T02:42:12.729Z,20.00
2018-08-20T02:44:40.881Z,20.00
2018-08-20T02:47:09.052Z,20.00
2018-08-20T02:49:37.234Z,20.00
2018-08-20T02:52:05.592Z,20.00
2018-08-20T02:54:33.859Z,20.00
2018-08-20T02:57:02.064Z,20.00
2018-08-20T02:59:30.216Z,20.00
2018-08-20T03:01:58.373Z,19.90
2018-08-20T03:04:26.538Z,19.90
2018-08-20T03:06:54.685Z,19.90
2018-08-20T03:09:22.867Z,19.90
2018-08-20T03:11:51.079Z,19.90
2018-08-20T03:14:19.220Z,19.80
2018-08-20T03:16:47.370Z,19.80
2018-08-20T03:19:15.525Z,19.80
2018-08-20T03:21:43.668Z,19.80
2018-08-20T03:24:11.812Z,19.80
2018-08-20T03:26:39.976Z,19.80
2018-08-20T03:29:08.184Z,19.80
2018-08-20T03:31:36.473Z,19.80
2018-08-20T03:34:04.717Z,19.80
2018-08-20T03:36:32.857Z,19.80
2018-08-20T03:39:01.010Z,19.70
2018-08-20T03:41:29.159Z,19.70
2018-08-20T03:43:57.340Z,19.70
2018-08-20T03:46:25.503Z,19.70
2018-08-20T03:48:53.755Z,19.80
2018-08-20T03:51:21.897Z,19.70
2018-08-20T03:53:50.077Z,19.60
2018-08-20T03:56:18.225Z,19.60
2018-08-20T03:58:46.418Z,19.60
2018-08-20T04:01:14.569Z,19.60
2018-08-20T04:03:42.729Z,19.60
2018-08-20T04:06:10.881Z,19.50
2018-08-20T04:08:39.068Z,19.40
2018-08-20T04:11:07.200Z,19.40
2018-08-20T04:13:35.364Z,19.40
2018-08-20T04:16:03.520Z,19.40
2018-08-20T04:18:31.704Z,19.30
2018-08-20T04:21:02.905Z,19.40
2018-08-20T04:25:58.997Z,19.30
2018-08-20T04:28:27.148Z,19.30
2018-08-20T04:30:55.311Z,19.20
2018-08-20T04:33:23.468Z,19.20
2018-08-20T04:35:51.627Z,19.20
2018-08-20T04:38:19.766Z,19.20
2018-08-20T04:40:47.927Z,19.30
2018-08-20T04:43:16.073Z,19.30
2018-08-20T04:45:44.241Z,19.40
2018-08-20T04:48:12.450Z,19.30
2018-08-20T04:50:40.680Z,19.40
2018-08-20T04:53:08.746Z,19.40
2018-08-20T04:55:36.922Z,19.30
2018-08-20T04:58:05.117Z,19.30
2018-08-20T05:00:33.260Z,19.30
2018-08-20T05:03:01.481Z,19.30
2018-08-20T05:05:29.631Z,19.30
2018-08-20T05:07:57.821Z,19.30
2018-08-20T05:10:25.967Z,19.30
2018-08-20T05:12:54.149Z,19.40
2018-08-20T05:15:22.357Z,19.50
2018-08-20T05:17:50.524Z,19.60
2018-08-20T05:20:18.665Z,19.70
2018-08-20T05:22:46.965Z,19.70
2018-08-20T05:25:15.132Z,19.70
2018-08-20T05:27:43.340Z,19.70
2018-08-20T05:30:11.548Z,19.90
2018-08-20T05:32:39.749Z,19.90
2018-08-20T05:35:07.949Z,19.90
2018-08-20T05:37:36.216Z,20.00
2018-08-20T05:40:04.552Z,20.10
2018-08-20T05:42:32.682Z,20.20
2018-08-20T05:45:00.900Z,20.10
2018-08-20T05:47:29.037Z,20.10
2018-08-20T05:49:57.237Z,20.20
2018-08-20T05:52:25.494Z,20.30
2018-08-20T05:54:53.653Z,20.20
2018-08-20T05:57:21.856Z,20.20
2018-08-20T05:59:49.990Z,20.10
2018-08-20T06:02:18.161Z,20.10
2018-08-20T06:04:46.355Z,20.00
2018-08-20T06:07:14.530Z,20.00
2018-08-20T06:09:42.696Z,20.00
2018-08-20T06:12:10.856Z,20.00
2018-08-20T06:14:39.010Z,20.20
2018-08-20T06:17:07.226Z,20.30
2018-08-20T06:19:35.408Z,20.30
2018-08-20T06:22:03.571Z,20.40
2018-08-20T06:24:31.749Z,20.40
2018-08-20T06:26:59.939Z,20.50
2018-08-20T06:29:28.145Z,20.60
2018-08-20T06:31:56.450Z,20.60
2018-08-20T06:34:24.676Z,20.60
2018-08-20T06:36:52.912Z,20.70
2018-08-20T06:39:21.241Z,20.80
2018-08-20T06:41:49.409Z,20.90
2018-08-20T06:44:17.560Z,21.20
2018-08-20T06:46:45.717Z,21.10
2018-08-20T06:49:13.912Z,21.40
2018-08-20T06:51:42.081Z,21.40
2018-08-20T06:54:10.254Z,21.30
2018-08-20T06:56:38.435Z,21.40
2018-08-20T06:59:06.689Z,21.50
2018-08-20T07:01:34.853Z,21.80
2018-08-20T07:04:03.072Z,21.90
2018-08-20T07:06:31.339Z,21.90
2018-08-20T07:08:59.498Z,22.00
2018-08-20T07:11:27.672Z,22.10
2018-08-20T07:13:55.834Z,22.30
2018-08-20T07:16:24.009Z,22.50
2018-08-20T07:18:52.776Z,22.50
2018-08-20T07:21:20.977Z,22.60
2018-08-20T07:23:49.203Z,22.70
2018-08-20T07:26:17.288Z,22.70
2018-08-20T07:28:45.506Z,22.80
2018-08-20T07:33:41.601Z,22.80
2018-08-20T07:36:09.804Z,22.90
2018-08-20T07:38:37.977Z,22.90
2018-08-20T07:41:06.234Z,22.90
2018-08-20T07:46:02.329Z,22.90
2018-08-20T07:48:30.565Z,22.90
2018-08-20T07:50:58.733Z,23.00
2018-08-20T07:53:26.894Z,23.00
2018-08-20T07:55:55.067Z,23.10
2018-08-20T07:58:23.243Z,23.10
2018-08-20T08:00:51.409Z,23.10
2018-08-20T08:03:28.843Z,23.10
2018-08-20T08:05:58.299Z,23.10
2018-08-20T08:08:26.530Z,23.10
2018-08-20T08:10:54.725Z,23.20
2018-08-20T08:13:23.101Z,23.20
2018-08-20T08:15:51.296Z,23.20
2018-08-20T08:18:19.420Z,23.50
2018-08-20T08:20:47.586Z,23.50
2018-08-20T08:23:15.781Z,23.60
2018-08-20T08:25:43.952Z,23.60
2018-08-20T08:28:12.106Z,23.40
2018-08-20T08:33:08.500Z,23.60
2018-08-20T08:35:36.659Z,23.70
2018-08-20T08:38:04.865Z,23.80
2018-08-20T08:40:33.013Z,23.80
2018-08-20T08:43:01.216Z,23.80
2018-08-20T08:45:29.376Z,23.80
2018-08-20T08:47:57.533Z,23.80
2018-08-20T08:50:25.693Z,23.80
2018-08-20T08:52:53.872Z,23.70
2018-08-20T08:55:22.035Z,23.70
2018-08-20T08:57:50.207Z,23.70
2018-08-20T09:02:47.464Z,23.50
2018-08-20T09:05:15.751Z,23.60
2018-08-20T09:07:44.084Z,23.60
2018-08-20T09:10:12.443Z,23.60
2018-08-20T09:12:40.888Z,23.60
2018-08-20T09:15:12.636Z,23.60
2018-08-20T09:17:40.828Z,23.40
2018-08-20T09:20:11.082Z,23.40
2018-08-20T09:22:39.348Z,23.20
2018-08-20T09:25:08.671Z,23.20
2018-08-20T09:27:36.813Z,23.10
2018-08-20T09:30:08.833Z,23.30
2018-08-20T09:32:44.127Z,23.30
2018-08-20T09:35:12.337Z,23.30
2018-08-20T09:37:40.520Z,23.40
2018-08-20T09:40:09.581Z,23.60
2018-08-20T09:42:38.481Z,23.80
2018-08-20T09:45:06.949Z,23.80
2018-08-20T09:47:35.673Z,23.70
2018-08-20T09:50:04.465Z,23.70
2018-08-20T09:52:32.627Z,23.70
2018-08-20T09:55:00.792Z,23.70
2018-08-20T09:57:28.937Z,23.60
2018-08-20T09:59:57.092Z,23.70
2018-08-20T10:02:25.516Z,23.60
2018-08-20T10:04:53.684Z,23.60
2018-08-20T10:07:21.896Z,23.60
2018-08-20T10:09:50.068Z,23.60
2018-08-20T10:12:18.326Z,23.70
2018-08-20T10:14:46.668Z,23.70
2018-08-20T10:17:14.846Z,23.80
2018-08-20T10:19:43.029Z,23.80
2018-08-20T10:22:11.192Z,23.90
2018-08-20T10:24:39.402Z,24.00
2018-08-20T10:27:07.578Z,24.00
2018-08-20T10:29:35.752Z,24.10
2018-08-20T10:32:03.916Z,24.10
2018-08-20T10:34:32.040Z,24.30
2018-08-20T10:37:00.265Z,24.40
2018-08-20T10:39:28.434Z,24.40
2018-08-20T10:44:24.509Z,24.40
2018-08-20T10:46:52.708Z,24.80
2018-08-20T10:49:20.841Z,24.80
2018-08-20T10:51:48.986Z,24.70
2018-08-20T10:54:17.375Z,24.90
2018-08-20T10:56:45.523Z,24.90
2018-08-20T10:59:13.699Z,24.90
2018-08-20T11:01:41.920Z,25.00
2018-08-20T11:04:10.118Z,25.10
2018-08-20T11:06:38.257Z,25.60
2018-08-20T11:09:07.727Z,25.60
2018-08-20T11:11:35.944Z,25.70
2018-08-20T11:14:04.054Z,25.50
2018-08-20T11:16:32.220Z,25.60
2018-08-20T11:19:00.373Z,25.70
2018-08-20T11:21:28.560Z,25.70
2018-08-20T11:23:56.712Z,25.70
2018-08-20T11:26:24.896Z,25.60
2018-08-20T11:28:53.055Z,25.60
2018-08-20T11:31:21.217Z,25.70
2018-08-20T11:33:49.382Z,25.70
2018-08-20T11:36:17.550Z,25.70
2018-08-20T11:38:45.699Z,25.70
2018-08-20T11:41:13.946Z,25.70
2018-08-20T11:43:42.104Z,25.70
2018-08-20T11:46:10.270Z,25.90
2018-08-20T11:48:38.443Z,25.90
2018-08-20T11:51:07.145Z,25.90
2018-08-20T11:53:35.437Z,25.80
2018-08-20T11:56:03.719Z,25.90
2018-08-20T11:58:32.368Z,25.90
2018-08-20T12:01:00.534Z,25.90
2018-08-20T12:03:28.705Z,26.00
2018-08-20T12:05:56.878Z,26.00
2018-08-20T12:08:25.038Z,26.10
2018-08-20T12:10:53.194Z,26.10
2018-08-20T12:13:21.446Z,26.30
2018-08-20T12:15:49.636Z,26.40
2018-08-20T12:18:17.798Z,26.40
2018-08-20T12:20:45.931Z,26.30
2018-08-20T12:23:14.243Z,26.30
2018-08-20T12:25:42.288Z,26.40
2018-08-20T12:28:10.472Z,26.40
2018-08-20T12:30:38.617Z,26.30
2018-08-20T12:33:07.078Z,26.40
2018-08-20T12:35:35.294Z,26.40
2018-08-20T12:38:03.526Z,26.40
2018-08-20T12:42:59.581Z,26.20
2018-08-20T12:45:27.774Z,26.30
2018-08-20T12:47:55.989Z,26.40
2018-08-20T12:50:24.162Z,26.60
2018-08-20T12:52:52.324Z,26.70
2018-08-20T12:55:20.489Z,26.70
2018-08-20T12:57:48.632Z,26.70
2018-08-20T13:00:16.801Z,26.70
2018-08-20T13:05:12.884Z,26.50
2018-08-20T13:07:41.116Z,26.40
2018-08-20T13:10:09.300Z,26.40
2018-08-20T13:12:37.473Z,26.30
2018-08-20T13:15:05.854Z,26.30
2018-08-20T13:17:34.017Z,26.30
2018-08-20T13:20:02.173Z,26.30
2018-08-20T13:22:30.487Z,26.30
2018-08-20T13:24:58.642Z,26.40
2018-08-20T13:27:26.804Z,26.40
2018-08-20T13:29:54.956Z,26.40
2018-08-20T13:32:23.162Z,26.50
2018-08-20T13:34:51.351Z,26.50
2018-08-20T13:37:19.573Z,26.40
2018-08-20T13:39:47.709Z,26.60
2018-08-20T13:42:15.884Z,26.70
2018-08-20T13:44:44.060Z,26.70
2018-08-20T13:47:12.209Z,26.70
2018-08-20T13:49:40.380Z,26.70
2018-08-20T13:52:08.541Z,26.80
2018-08-20T13:54:36.693Z,26.90
2018-08-20T13:57:06.562Z,26.90
2018-08-20T13:59:34.736Z,26.90
2018-08-20T14:02:02.917Z,26.90
2018-08-20T14:04:31.053Z,27.00
2018-08-20T14:06:59.259Z,27.10
2018-08-20T14:09:27.444Z,27.20
2018-08-20T14:11:55.621Z,27.20
2018-08-20T14:14:23.808Z,27.10
2018-08-20T14:16:52.049Z,27.10
2018-08-20T14:19:20.251Z,27.10
2018-08-20T14:21:48.417Z,27.10
2018-08-20T14:24:16.641Z,27.10
2018-08-20T14:26:44.792Z,27.20
2018-08-20T14:29:12.946Z,27.30
2018-08-20T14:31:41.090Z,27.50
2018-08-20T14:34:09.236Z,27.50
2018-08-20T14:36:37.506Z,28.10
2018-08-20T14:39:06.783Z,28.10
2018-08-20T14:41:35.217Z,28.30
2018-08-20T14:44:03.520Z,28.50
2018-08-20T14:46:31.889Z,28.60
2018-08-20T14:49:00.142Z,28.40
2018-08-20T14:51:28.386Z,28.30
2018-08-20T14:53:56.607Z,27.70
2018-08-20T14:58:53.266Z,27.60
2018-08-20T15:01:21.398Z,27.50
2018-08-20T15:03:49.541Z,27.40
2018-08-20T15:06:17.704Z,27.40
2018-08-20T15:08:45.848Z,27.20
2018-08-20T15:11:14.015Z,27.20
2018-08-20T15:13:42.188Z,27.10
2018-08-20T15:16:10.333Z,27.10
2018-08-20T15:18:38.503Z,27.00
2018-08-20T15:23:34.993Z,26.80
2018-08-20T15:26:03.232Z,26.80
2018-08-20T15:28:31.500Z,26.80
2018-08-20T15:30:59.705Z,26.80
2018-08-20T15:33:27.880Z,26.70
2018-08-20T15:35:56.124Z,26.80
2018-08-20T15:38:24.278Z,26.90
2018-08-20T15:40:52.425Z,27.50
2018-08-20T15:43:20.621Z,27.60
2018-08-20T15:45:48.776Z,27.50
2018-08-20T15:48:16.937Z,28.00
2018-08-20T15:50:45.108Z,27.30
2018-08-20T15:53:13.270Z,27.30
2018-08-20T15:55:41.613Z,27.30
2018-08-20T15:58:09.782Z,27.10
2018-08-20T16:00:37.967Z,27.10
2018-08-20T16:03:06.608Z,27.00
2018-08-20T16:08:02.737Z,27.00
2018-08-20T16:10:30.909Z,26.90
2018-08-20T16:12:59.068Z,26.80
2018-08-20T16:15:27.203Z,26.80
2018-08-20T16:20:23.316Z,26.70
2018-08-20T16:22:51.517Z,26.60
2018-08-20T16:25:19.660Z,26.60
2018-08-20T16:27:47.821Z,26.60
2018-08-20T16:30:15.976Z,26.60
2018-08-20T16:32:44.176Z,26.50
2018-08-20T16:35:13.140Z,26.40
2018-08-20T16:37:42.434Z,26.40
2018-08-20T16:40:10.613Z,26.40
2018-08-20T16:42:38.872Z,26.40
2018-08-20T16:45:08.028Z,26.40
2018-08-20T16:47:36.208Z,26.30
2018-08-20T16:50:06.116Z,26.40
2018-08-20T16:52:34.268Z,26.40
2018-08-20T16:55:02.445Z,26.40
2018-08-20T16:57:30.629Z,26.40
2018-08-20T16:59:58.845Z,26.40
2018-08-20T17:02:30.152Z,26.50
2018-08-20T17:04:58.360Z,26.60
2018-08-20T17:07:26.506Z,26.40
2018-08-20T17:09:54.658Z,26.20
2018-08-20T17:12:22.795Z,26.20
2018-08-20T17:14:50.967Z,26.10
2018-08-20T17:17:19.096Z,26.00
2018-08-20T17:19:47.309Z,25.90
2018-08-20T17:22:15.812Z,25.70
2018-08-20T17:24:43.946Z,25.70
2018-08-20T17:27:12.576Z,25.70
2018-08-20T17:29:40.778Z,25.60
2018-08-20T17:32:09.735Z,25.60
2018-08-20T17:34:40.276Z,25.90
2018-08-20T17:37:08.524Z,26.10
2018-08-20T17:39:51.189Z,25.70
2018-08-20T17:42:19.370Z,25.50
2018-08-20T17:44:47.505Z,25.50
2018-08-20T17:47:19.903Z,25.30
2018-08-20T17:49:48.077Z,25.10
2018-08-20T17:52:16.232Z,25.10
2018-08-20T17:54:44.377Z,25.10
2018-08-20T17:57:12.611Z,25.10
2018-08-20T18:02:22.510Z,25.00
2018-08-20T18:04:50.915Z,24.90
2018-08-20T18:07:19.039Z,24.80
2018-08-20T18:09:47.194Z,24.80
2018-08-20T18:12:15.373Z,24.70
2018-08-20T18:17:12.429Z,24.60
2018-08-20T18:19:40.517Z,24.60
2018-08-20T18:22:08.757Z,24.50
2018-08-20T18:24:36.921Z,24.50
2018-08-20T18:27:05.087Z,24.40
2018-08-20T18:29:33.343Z,24.40
2018-08-20T18:32:02.985Z,24.30
2018-08-20T18:34:31.176Z,24.20
2018-08-20T18:37:02.442Z,24.10
2018-08-20T18:39:30.585Z,24.10
2018-08-20T18:42:01.777Z,24.00
2018-08-20T18:44:29.938Z,23.90
2018-08-20T18:46:58.104Z,23.90
2018-08-20T18:49:26.241Z,23.80
2018-08-20T18:52:12.532Z,23.70
2018-08-20T18:54:42.986Z,23.60
2018-08-20T18:57:15.888Z,23.60
2018-08-20T18:59:44.052Z,23.60
2018-08-20T19:02:19.747Z,23.50
2018-08-20T19:04:48.251Z,23.50
2018-08-20T19:07:16.725Z,23.40
2018-08-20T19:09:47.965Z,23.40
2018-08-20T19:12:16.246Z,23.40
2018-08-20T19:14:44.421Z,23.30
2018-08-20T19:17:16.852Z,23.30
2018-08-20T19:19:47.276Z,23.30
2018-08-20T19:22:20.901Z,23.30
2018-08-20T19:24:49.076Z,23.30
2018-08-20T19:27:17.260Z,23.30
2018-08-20T19:29:45.449Z,23.30
2018-08-20T19:32:13.620Z,23.20
2018-08-20T19:34:41.763Z,23.30
2018-08-20T19:37:09.924Z,23.30
2018-08-20T19:39:38.073Z,23.30
2018-08-20T19:42:06.830Z,23.30
2018-08-20T19:44:34.993Z,23.30
2018-08-20T19:47:03.137Z,23.30
2018-08-20T19:49:31.349Z,23.30
2018-08-20T19:51:59.481Z,23.20
2018-08-20T19:54:27.966Z,23.20
2018-08-20T19:56:56.098Z,23.20
2018-08-20T19:59:29.678Z,23.20
2018-08-20T20:01:57.846Z,23.20
2018-08-20T20:04:26.005Z,23.10
2018-08-20T20:06:54.182Z,23.10
2018-08-20T20:09:22.334Z,23.10
2018-08-20T20:11:51.723Z,23.10
2018-08-20T20:14:19.868Z,23.10
2018-08-20T20:16:53.212Z,23.10
2018-08-20T20:19:21.531Z,23.10
2018-08-20T20:21:49.689Z,23.10
2018-08-20T20:24:17.893Z,23.10
2018-08-20T20:26:46.111Z,23.00
2018-08-20T20:29:14.338Z,23.10
2018-08-20T20:31:43.094Z,23.10
2018-08-20T20:34:11.320Z,23.10
2018-08-20T20:36:39.559Z,23.10
2018-08-20T20:39:10.260Z,23.10
2018-08-20T20:41:38.433Z,23.10
2018-08-20T20:44:07.349Z,23.10
2018-08-20T20:46:35.519Z,23.10
2018-08-20T20:49:03.681Z,23.10
2018-08-20T20:51:31.843Z,23.00
2018-08-20T20:54:00.053Z,23.00
2018-08-20T20:56:28.233Z,23.00
2018-08-20T20:58:56.380Z,22.90
2018-08-20T21:01:24.538Z,22.90
2018-08-20T21:03:52.700Z,22.90
2018-08-20T21:06:20.896Z,22.90
2018-08-20T21:08:49.662Z,22.80
2018-08-20T21:11:18.957Z,22.80
2018-08-20T21:13:47.348Z,22.80
2018-08-20T21:16:16.892Z,22.80
2018-08-20T21:18:48.879Z,22.80
2018-08-20T21:21:17.957Z,22.70
2018-08-20T21:23:46.204Z,22.70
2018-08-20T21:26:14.472Z,22.70
2018-08-20T21:28:45.688Z,22.70
2018-08-20T21:31:14.900Z,22.60
2018-08-20T21:33:43.617Z,22.60
2018-08-20T21:36:12.503Z,22.60
2018-08-20T21:38:40.789Z,22.60
2018-08-20T21:41:08.973Z,22.60
2018-08-20T21:43:42.625Z,22.60
2018-08-20T21:46:11.501Z,22.50
2018-08-20T21:48:40.048Z,22.50
2018-08-20T21:51:28.671Z,22.50
2018-08-20T21:53:57.155Z,22.50
2018-08-20T21:56:29.800Z,22.50
2018-08-20T21:58:58.015Z,22.50
2018-08-20T22:01:26.193Z,22.50
2018-08-20T22:03:54.394Z,22.50
2018-08-20T22:06:22.549Z,22.50
2018-08-20T22:08:50.733Z,22.40
2018-08-20T22:11:18.922Z,22.40
2018-08-20T22:13:47.104Z,22.40
2018-08-20T22:16:18.740Z,22.40
2018-08-20T22:18:51.212Z,22.40
2018-08-20T22:21:19.378Z,22.40
2018-08-20T22:23:47.653Z,22.40
2018-08-20T22:26:18.323Z,22.40
2018-08-20T22:28:48.680Z,22.30
2018-08-20T22:31:16.945Z,22.30
2018-08-20T22:33:52.337Z,22.30
2018-08-20T22:36:20.496Z,22.30
2018-08-20T22:38:52.493Z,22.30
2018-08-20T22:41:21.480Z,22.30
2018-08-20T22:43:49.991Z,22.30
2018-08-20T22:46:18.992Z,22.30
2018-08-20T22:48:53.375Z,22.30
2018-08-20T22:51:22.139Z,22.30
2018-08-20T22:53:51.520Z,22.30
2018-08-20T22:56:28.837Z,22.20
2018-08-20T22:58:59.572Z,22.20
2018-08-20T23:01:27.788Z,22.20
2018-08-20T23:03:55.936Z,22.20
2018-08-20T23:06:24.356Z,22.10
2018-08-20T23:08:52.561Z,22.10
2018-08-20T23:11:36.978Z,22.10
2018-08-20T23:14:05.917Z,22.20
2018-08-20T23:16:34.121Z,22.10
2018-08-20T23:19:02.387Z,22.20
2018-08-20T23:21:47.781Z,22.20
2018-08-20T23:24:16.706Z,22.10
2018-08-20T23:26:44.857Z,22.20
2018-08-20T23:29:13.041Z,22.20
2018-08-20T23:31:41.563Z,22.20
2018-08-20T23:34:11.923Z,22.20
2018-08-20T23:36:40.596Z,22.10
2018-08-20T23:39:10.620Z,22.10
2018-08-20T23:41:39.013Z,22.10
2018-08-20T23:44:07.497Z,22.10
2018-08-20T23:46:42.274Z,22.10
2018-08-20T23:49:10.465Z,22.10
2018-08-20T23:51:38.660Z,22.00
2018-08-20T23:54:06.827Z,22.00
2018-08-20T23:56:34.982Z,22.00
2018-08-20T23:59:03.165Z,22.00
